DW9771 Ocean Shores WA US current weather conditions

sailwx.info

Wind from 143

Air temperature 10.0° C
Dewpoint 9.2° C

Last reported at 2020-Jan-28 22:02 UTC.
Time now 2020-Jan-28 22:44 UTC

Location: N 46°57' W 124°08'.
View on Google Maps.

See reports from other nearby stations

  
Tides and Currents Weather Stations Pressure Air Temp Water Temp Dewpoint Dewpoint Depression Visibility Wind Speed Wind Dir Waves Ship Positions
date/time (UTC)wind fromknots sea level pressurealtimeterstation pressurevisibilityair tempwater tempwave heightnotes
2020-Jan-28 22:02 143 10.0
2020-Jan-28 21:47 101 10.0
2020-Jan-28 21:33 041 0 gusting 3 9.4
2020-Jan-28 21:18 094 2 gusting 4 9.4
2020-Jan-28 21:01 084 0 gusting 3 8.9
2020-Jan-28 20:47 061 1 gusting 4 8.9
2020-Jan-28 20:33 027 0 gusting 3 8.9
2020-Jan-28 20:18 035 2 gusting 4 8.3
2020-Jan-28 20:03 059 2 gusting 5 8.3
2020-Jan-28 19:46 049 0 gusting 5 8.3
2020-Jan-28 19:31 053 1 gusting 5 8.3
2020-Jan-28 19:17 033 2 gusting 6 8.3
2020-Jan-28 19:01 034 3 gusting 6 8.3
2020-Jan-28 18:48 092 1 gusting 6 8.3
2020-Jan-28 18:32 096 2 gusting 6 7.8
2020-Jan-28 18:16 051 3 gusting 8 7.8
2020-Jan-28 18:01 060 2 gusting 6 7.8
2020-Jan-28 17:46 056 4 gusting 8 7.8
2020-Jan-28 17:32 062 3 gusting 6 7.8
2020-Jan-28 17:16 077 2 gusting 6 7.8
2020-Jan-28 17:01 060 1 gusting 6 7.2
2020-Jan-28 16:45 115 3 gusting 6 7.2
2020-Jan-28 16:30 107 2 gusting 7 7.8
2020-Jan-28 16:15 115 2 gusting 4 7.8
2020-Jan-28 16:01 063 0 gusting 4 7.8
2020-Jan-28 15:45 108 7.2
2020-Jan-28 15:30 114 1 gusting 4 7.2
2020-Jan-28 15:15 062 1 gusting 4 7.2
2020-Jan-28 15:00 123 0 gusting 3 7.2
2020-Jan-28 14:45 183 1 gusting 6 7.2
2020-Jan-28 14:30 196 4 gusting 7 7.8
2020-Jan-28 14:15 198 2 gusting 6 7.8
2020-Jan-28 14:00 226 4 gusting 7 7.8
2020-Jan-28 13:46 179 3 gusting 6 7.8
2020-Jan-28 13:32 203 1 gusting 6 7.2
2020-Jan-28 13:16 128 1 gusting 7 7.8
2020-Jan-28 13:03 092 2 gusting 9 7.8
2020-Jan-28 12:47 184 4 gusting 9 8.3
2020-Jan-28 12:33 170 4 gusting 9 8.3
2020-Jan-28 12:17 162 3 gusting 6 8.3
2020-Jan-28 12:01 197 1 gusting 5 8.3
2020-Jan-28 11:47 148 4 gusting 8 8.3
2020-Jan-28 11:32 205 3 gusting 7 7.8
2020-Jan-28 11:16 159 3 gusting 9 7.8
2020-Jan-28 11:01 334 2 gusting 7 7.8
2020-Jan-28 10:47 242 3 gusting 11 8.3
2020-Jan-28 10:32 161 7 gusting 15 8.3
2020-Jan-28 10:16 102 1 gusting 7 9.4
2020-Jan-28 10:01 230 2 gusting 8 9.4
2020-Jan-28 09:47 183 2 gusting 8 9.4
2020-Jan-28 09:31 231 2 gusting 10 9.4
2020-Jan-28 09:16 108 1 gusting 8 9.4
2020-Jan-28 09:02 229 3 gusting 10 9.4
2020-Jan-28 08:46 217 3 gusting 7 9.4
2020-Jan-28 08:32 164 5 gusting 13 9.4
2020-Jan-28 08:16 257 3 gusting 10 9.4
2020-Jan-28 08:02 139 4 gusting 11 9.4
2020-Jan-28 07:45 101 3 gusting 9 9.4
2020-Jan-28 07:31 228 4 gusting 8 9.4
2020-Jan-28 07:15 128 5 gusting 11 9.4
2020-Jan-28 07:00 040 3 gusting 7 9.4
2020-Jan-28 06:45 245 2 gusting 6 9.4
2020-Jan-28 06:32 096 2 gusting 8 9.4
2020-Jan-28 06:15 148 1 gusting 8 9.4
2020-Jan-28 06:01 118 3 gusting 9 9.4
2020-Jan-28 05:45 008 1 gusting 8 9.4
2020-Jan-28 05:30 208 1 gusting 6 9.4
2020-Jan-28 05:15 132 2 gusting 7 9.4
2020-Jan-28 05:00 179 2 gusting 8 9.4
2020-Jan-28 04:45 220 2 gusting 7 9.4
2020-Jan-28 04:30 136 2 gusting 9 9.4
2020-Jan-28 04:15 226 3 gusting 9 9.4
2020-Jan-28 04:00 081 3 gusting 9 9.4
2020-Jan-28 03:45 141 4 gusting 10 9.4
2020-Jan-28 03:30 132 2 gusting 8 9.4
2020-Jan-28 03:15 165 1 gusting 4 8.3
2020-Jan-28 03:00 130 6 gusting 13 7.8
2020-Jan-28 02:45 060 6 gusting 13 7.2
2020-Jan-28 02:30 056 4 gusting 11 7.2
2020-Jan-28 02:17 056 5 gusting 11 7.2
2020-Jan-28 02:02 032 4 gusting 13 7.2
2020-Jan-28 01:47 064 4 gusting 8 7.8
2020-Jan-28 01:32 053 2 gusting 6 7.8
2020-Jan-28 01:17 060 3 gusting 6 7.8
2020-Jan-28 01:02 037 1 gusting 7 7.8
2020-Jan-28 00:46 120 3 gusting 6 7.8
2020-Jan-28 00:31 078 5 gusting 11 7.8
2020-Jan-28 00:16 138 6 gusting 12 7.8
2020-Jan-28 00:01 082 6 gusting 11 7.8
2020-Jan-27 23:46 103 6 gusting 13 7.8
2020-Jan-27 23:32 083 7 gusting 15 7.8
2020-Jan-27 23:16 125 7 gusting 16 7.2
2020-Jan-27 23:01 096 6 gusting 13 7.2
2020-Jan-27 22:46 089 6 gusting 13 7.2
2020-Jan-27 22:32 096 6 gusting 11 7.2
2020-Jan-27 22:17 088 6 gusting 13 7.2
2020-Jan-27 22:01 060 5 gusting 13 7.2
2020-Jan-27 21:46 053 7 gusting 13 7.2
2020-Jan-27 21:31 041 6 gusting 13 7.2
2020-Jan-27 21:15 074 4 gusting 11 7.2
2020-Jan-27 21:00 051 6 gusting 11 7.2
2020-Jan-27 20:45 127 4 gusting 11 7.2
2020-Jan-27 20:30 128 6 gusting 11 7.2
2020-Jan-27 20:15 075 6 gusting 13 7.2
2020-Jan-27 20:01 079 5 gusting 11 6.7
2020-Jan-27 19:47 077 6 gusting 12 7.2
2020-Jan-27 19:32 050 6 gusting 12 7.2
2020-Jan-27 19:17 057 4 gusting 9 7.2
2020-Jan-27 19:01 084 3 gusting 10 7.2
2020-Jan-27 18:47 075 6 gusting 12 7.2
2020-Jan-27 18:31 063 3 gusting 9 7.2
2020-Jan-27 18:02 110 2 gusting 6 7.8
2020-Jan-27 17:47 074 2 gusting 5 7.2
2020-Jan-27 17:31 093 1 gusting 4 7.2
2020-Jan-27 17:17 097 0 gusting 4 7.2
2020-Jan-27 17:02 119 1 gusting 5 7.8
2020-Jan-27 16:46 141 1 gusting 6 7.8
2020-Jan-27 16:31 104 4 gusting 8 7.8
2020-Jan-27 16:16 108 4 gusting 6 7.2
2020-Jan-27 16:00 099 1 gusting 6 7.8
2020-Jan-27 15:46 127 3 gusting 6 7.8
2020-Jan-27 15:30 139 2 gusting 6 7.8
2020-Jan-27 15:16 140 2 gusting 5 7.8
2020-Jan-27 15:00 139 0 gusting 3 7.8
2020-Jan-27 14:45 119 0 gusting 2 7.8
2020-Jan-27 14:31 123 0 gusting 4 8.3
2020-Jan-27 14:16 187 1 gusting 5 8.3
2020-Jan-27 14:01 132 8.3
2020-Jan-27 13:45 143 8.9
2020-Jan-27 13:30 201 0 gusting 6 8.9
2020-Jan-27 13:16 199 1 gusting 6 8.9
2020-Jan-27 13:00 241 0 gusting 4 8.9
2020-Jan-27 12:45 269 0 gusting 5 8.9
2020-Jan-27 12:30 170 0 gusting 4 8.9
2020-Jan-27 12:16 100 0 gusting 3 8.3
2020-Jan-27 12:00 082 8.3
2020-Jan-27 11:45 271 8.3
2020-Jan-27 11:30 043 8.3
2020-Jan-27 11:15 219 8.3
2020-Jan-27 11:00 079 8.3
2020-Jan-27 10:45 077 8.3
2020-Jan-27 10:30 105 8.9
2020-Jan-27 10:02 143 8.3
2020-Jan-27 09:48 070 0 gusting 2 8.3
2020-Jan-27 09:32 096 8.3
2020-Jan-27 09:18 029 0 gusting 3 7.8
2020-Jan-27 09:02 034 0 gusting 4 7.8
2020-Jan-27 08:47 027 1 gusting 5 8.3
2020-Jan-27 08:31 350 0 gusting 4 8.3
2020-Jan-27 08:16 051 1 gusting 4 8.3
2020-Jan-27 08:00 110 0 gusting 4 8.3
2020-Jan-27 07:46 070 0 gusting 5 8.3
2020-Jan-27 07:32 110 0 gusting 3 8.3
2020-Jan-27 07:16 002 0 gusting 3 8.3
2020-Jan-27 07:01 036 0 gusting 7 8.3
2020-Jan-27 06:46 082 1 gusting 5 8.3
2020-Jan-27 06:31 103 0 gusting 5 8.3
2020-Jan-27 06:16 032 8.3
2020-Jan-27 06:00 040 0 gusting 4 8.3
2020-Jan-27 05:45 046 0 gusting 3 7.8
2020-Jan-27 05:31 042 0 gusting 3 7.8
2020-Jan-27 05:15 095 1 gusting 5 7.8
2020-Jan-27 05:00 034 1 gusting 5 7.8
2020-Jan-27 04:45 046 0 gusting 5 7.8
2020-Jan-27 04:30 033 0 gusting 5 8.3
2020-Jan-27 04:15 169 0 gusting 4 8.3
2020-Jan-27 04:00 076 7.8
2020-Jan-27 03:45 110 0 gusting 3 7.8
2020-Jan-27 03:30 027 7.8
2020-Jan-27 03:15 103 7.8
2020-Jan-27 03:00 057 0 gusting 5 8.3
2020-Jan-27 02:45 112 0 gusting 4 8.3
2020-Jan-27 02:30 039 0 gusting 6 8.3
2020-Jan-27 02:15 204 3 gusting 13 8.3
2020-Jan-27 02:00 192 9 gusting 17 8.3
2020-Jan-27 01:45 186 5 gusting 19 8.3
2020-Jan-27 01:30 181 14 gusting 23 8.3
2020-Jan-27 01:17 174 13 gusting 20 8.3
2020-Jan-27 01:02 194 10 gusting 19 8.3
2020-Jan-27 00:47 132 6 gusting 15 8.3
2020-Jan-27 00:32 304 6 gusting 19 8.3
2020-Jan-27 00:17 158 4 gusting 17 8.3
2020-Jan-27 00:02 220 6 gusting 17 9.4
2020-Jan-26 23:47 065 6 gusting 14 9.4
2020-Jan-26 23:33 203 6 gusting 12 10.0
2020-Jan-26 23:17 122 7 gusting 14 10.0
2020-Jan-26 23:02 112 7 gusting 16 10.0
2020-Jan-26 22:46 143 7 gusting 15 10.0
2020-Jan-26 22:32 172 7 gusting 13 10.0
2020-Jan-26 22:17 215 6 gusting 13 10.0
2020-Jan-26 22:03 191 7 gusting 13 10.0